createdAt,value
2023-02-08T00:00:46.281Z,10.55
2023-02-08T00:03:13.432Z,10.75
2023-02-08T00:05:40.235Z,11.03
2023-02-08T00:08:07.655Z,11.05
2023-02-08T00:10:35.160Z,10.52
2023-02-08T00:13:02.135Z,11.50
2023-02-08T00:15:29.243Z,10.25
2023-02-08T00:17:56.054Z,10.20
2023-02-08T00:20:23.150Z,10.90
2023-02-08T00:22:51.526Z,10.50
2023-02-08T00:25:19.261Z,10.13
2023-02-08T00:27:46.025Z,11.35
2023-02-08T00:30:12.912Z,10.87
2023-02-08T00:32:39.669Z,11.43
2023-02-08T00:35:06.716Z,10.65
2023-02-08T00:37:33.762Z,10.82
2023-02-08T00:40:02.591Z,10.95
2023-02-08T00:42:30.166Z,10.57
2023-02-08T00:44:57.209Z,10.57
2023-02-08T00:47:24.920Z,10.32
2023-02-08T00:49:51.867Z,11.15
2023-02-08T00:52:19.526Z,11.32
2023-02-08T00:54:46.987Z,12.10
2023-02-08T00:57:14.354Z,11.20
2023-02-08T00:59:41.189Z,11.15
2023-02-08T01:02:10.308Z,10.85
2023-02-08T01:04:37.897Z,10.70
2023-02-08T01:07:05.812Z,10.50
2023-02-08T01:09:33.452Z,11.50
2023-02-08T01:12:00.729Z,11.52
2023-02-08T01:14:27.763Z,11.07
2023-02-08T01:16:54.652Z,11.43
2023-02-08T01:19:21.485Z,11.03
2023-02-08T01:21:49.290Z,11.45
2023-02-08T01:24:16.313Z,10.55
2023-02-08T01:26:43.100Z,10.82
2023-02-08T01:29:10.415Z,10.88
2023-02-08T01:31:41.244Z,11.20
2023-02-08T01:34:09.209Z,10.40
2023-02-08T01:36:36.999Z,9.75
2023-02-08T01:39:05.213Z,11.10
2023-02-08T01:41:35.614Z,11.63
2023-02-08T01:44:11.524Z,11.07
2023-02-08T01:46:40.709Z,10.45
2023-02-08T01:49:36.933Z,11.20
2023-02-08T01:52:19.390Z,11.07
2023-02-08T01:54:56.084Z,10.88
2023-02-08T01:57:23.407Z,11.20
2023-02-08T02:00:07.161Z,10.85
2023-02-08T02:02:41.921Z,9.80
2023-02-08T02:05:08.897Z,10.60
2023-02-08T02:07:36.139Z,10.43
2023-02-08T02:10:26.350Z,10.57
2023-02-08T02:12:55.568Z,10.85
2023-02-08T02:15:22.770Z,10.57
2023-02-08T02:17:49.892Z,10.93
2023-02-08T02:20:40.109Z,10.18
2023-02-08T02:23:13.248Z,10.87
2023-02-08T02:26:11.557Z,9.90
2023-02-08T02:29:17.059Z,10.40
2023-02-08T02:31:54.497Z,10.30
2023-02-08T02:34:28.504Z,10.98
2023-02-08T02:37:18.271Z,10.63
2023-02-08T02:39:58.818Z,11.02
2023-02-08T02:43:22.051Z,10.88
2023-02-08T02:46:09.189Z,11.30
2023-02-08T02:48:38.912Z,10.10
2023-02-08T02:51:19.041Z,10.10
2023-02-08T02:54:22.432Z,10.55
2023-02-08T02:56:52.164Z,10.40
2023-02-08T02:59:20.222Z,10.50
2023-02-08T03:01:47.392Z,10.60
2023-02-08T03:04:15.410Z,10.40
2023-02-08T03:06:57.630Z,10.50
2023-02-08T03:09:36.544Z,10.05
2023-02-08T03:12:35.063Z,11.02
2023-02-08T03:15:21.885Z,10.38
2023-02-08T03:18:05.446Z,11.47
2023-02-08T03:20:33.290Z,10.00
2023-02-08T03:23:22.402Z,10.68
2023-02-08T03:26:11.266Z,10.00
2023-02-08T03:28:52.340Z,10.50
2023-02-08T03:31:21.924Z,10.43
2023-02-08T03:33:56.569Z,9.80
2023-02-08T03:36:33.065Z,10.45
2023-02-08T03:39:03.057Z,10.25
2023-02-08T03:41:35.626Z,10.85
2023-02-08T03:44:13.980Z,9.90
2023-02-08T03:46:48.247Z,9.75
2023-02-08T03:49:22.296Z,10.02
2023-02-08T03:51:50.170Z,10.07
2023-02-08T03:54:23.759Z,9.68
2023-02-08T03:57:04.005Z,10.00
2023-02-08T03:59:35.632Z,9.48
2023-02-08T04:02:05.548Z,10.60
2023-02-08T04:04:36.924Z,9.40
2023-02-08T04:07:04.274Z,9.45
2023-02-08T04:09:31.015Z,10.40
2023-02-08T04:11:58.726Z,9.85
2023-02-08T04:14:25.501Z,10.25
2023-02-08T04:16:53.156Z,9.50
2023-02-08T04:19:19.968Z,10.13
2023-02-08T04:21:46.870Z,11.13
2023-02-08T04:24:13.721Z,10.50
2023-02-08T04:26:40.510Z,9.60
2023-02-08T04:29:07.351Z,10.98
2023-02-08T04:31:34.156Z,10.75
2023-02-08T04:34:01.095Z,10.83
2023-02-08T04:36:27.867Z,10.13
2023-02-08T04:38:54.652Z,9.80
2023-02-08T04:41:21.594Z,9.93
2023-02-08T04:43:48.369Z,10.55
2023-02-08T04:46:15.964Z,10.10
2023-02-08T04:48:42.746Z,10.82
2023-02-08T04:51:09.509Z,9.63
2023-02-08T04:53:36.300Z,10.13
2023-02-08T04:56:03.142Z,10.98
2023-02-08T04:58:30.619Z,9.57
2023-02-08T05:00:57.355Z,10.27
2023-02-08T05:03:24.129Z,10.70
2023-02-08T05:06:00.767Z,10.85
2023-02-08T05:08:27.686Z,9.98
2023-02-08T05:10:54.422Z,9.80
2023-02-08T05:13:21.285Z,10.00
2023-02-08T05:15:48.116Z,10.65
2023-02-08T05:18:14.956Z,10.23
2023-02-08T05:20:42.141Z,11.20
2023-02-08T05:23:09.059Z,10.17
2023-02-08T05:25:37.291Z,10.18
2023-02-08T05:28:04.113Z,10.38
2023-02-08T05:30:31.628Z,10.00
2023-02-08T05:32:58.440Z,10.90
2023-02-08T05:35:25.348Z,11.00
2023-02-08T05:37:52.114Z,10.20
2023-02-08T05:40:18.927Z,10.50
2023-02-08T05:42:47.637Z,10.30
2023-02-08T05:45:15.326Z,10.63
2023-02-08T05:47:42.605Z,9.83
2023-02-08T05:50:10.292Z,10.45
2023-02-08T05:52:37.049Z,10.15
2023-02-08T05:55:04.074Z,10.10
2023-02-08T05:57:33.613Z,9.85
2023-02-08T06:00:01.743Z,10.07
2023-02-08T06:02:28.671Z,10.68
2023-02-08T06:04:55.663Z,8.95
2023-02-08T06:07:22.447Z,9.93
2023-02-08T06:09:49.183Z,10.23
2023-02-08T06:12:16.701Z,10.03
2023-02-08T06:14:44.514Z,9.20
2023-02-08T06:17:11.388Z,10.02
2023-02-08T06:19:38.193Z,9.75
2023-02-08T06:22:04.924Z,9.18
2023-02-08T06:24:31.822Z,10.10
2023-02-08T06:26:58.705Z,8.95
2023-02-08T06:29:25.456Z,9.98
2023-02-08T06:31:52.351Z,9.70
2023-02-08T06:34:19.333Z,9.82
2023-02-08T06:36:46.081Z,9.20
2023-02-08T06:39:13.150Z,8.80
2023-02-08T06:41:40.085Z,10.13
2023-02-08T06:44:07.125Z,9.48
2023-02-08T06:46:33.982Z,9.35
2023-02-08T06:49:00.719Z,9.00
2023-02-08T06:51:27.979Z,9.25
2023-02-08T06:53:55.100Z,9.80
2023-02-08T06:56:21.899Z,10.23
2023-02-08T06:58:48.803Z,9.45
2023-02-08T07:01:16.032Z,10.10
2023-02-08T07:03:42.953Z,9.45
2023-02-08T07:06:14.590Z,9.73
2023-02-08T07:08:42.322Z,9.70
2023-02-08T07:11:16.066Z,9.88
2023-02-08T07:13:43.094Z,10.20
2023-02-08T07:16:10.535Z,9.00
2023-02-08T07:18:37.741Z,10.07
2023-02-08T07:21:04.936Z,9.13
2023-02-08T07:23:32.317Z,9.52
2023-02-08T07:26:04.155Z,9.30
2023-02-08T07:28:31.100Z,9.00
2023-02-08T07:30:58.123Z,10.00
2023-02-08T07:33:25.886Z,9.40
2023-02-08T07:35:52.765Z,10.02
2023-02-08T07:38:20.837Z,9.90
2023-02-08T07:40:48.117Z,9.95
2023-02-08T07:43:14.851Z,9.13
2023-02-08T07:45:51.320Z,9.70
2023-02-08T07:48:18.040Z,9.68
2023-02-08T07:50:44.759Z,9.73
2023-02-08T07:53:11.795Z,8.95
2023-02-08T07:55:38.868Z,9.05
2023-02-08T07:58:05.672Z,9.07
2023-02-08T08:00:32.835Z,9.23
2023-02-08T08:03:00.339Z,9.27
2023-02-08T08:05:27.284Z,8.82
2023-02-08T08:07:53.996Z,10.10
2023-02-08T08:10:20.704Z,9.00
2023-02-08T08:12:47.392Z,9.80
2023-02-08T08:15:14.270Z,9.70
2023-02-08T08:17:42.516Z,8.48
2023-02-08T08:20:12.123Z,9.45
2023-02-08T08:22:38.994Z,10.27
2023-02-08T08:25:06.268Z,9.18
2023-02-08T08:27:33.131Z,9.43
2023-02-08T08:30:00.068Z,10.38
2023-02-08T08:32:26.886Z,8.43
2023-02-08T08:34:53.735Z,9.55
2023-02-08T08:37:20.601Z,9.68
2023-02-08T08:39:47.373Z,8.63
2023-02-08T08:42:14.280Z,9.38
2023-02-08T08:44:41.182Z,8.65
2023-02-08T08:47:09.306Z,8.57
2023-02-08T08:49:36.150Z,8.70
2023-02-08T08:52:02.969Z,9.87
2023-02-08T08:54:29.772Z,9.52
2023-02-08T08:56:56.525Z,8.63
2023-02-08T08:59:23.295Z,8.63
2023-02-08T09:01:50.024Z,9.05
2023-02-08T09:04:16.851Z,8.63
2023-02-08T09:06:43.676Z,8.93
2023-02-08T09:09:10.416Z,8.38
2023-02-08T09:11:37.168Z,9.82
2023-02-08T09:14:05.040Z,8.23
2023-02-08T09:16:32.518Z,7.00
2023-02-08T09:19:03.989Z,9.05
2023-02-08T09:21:31.105Z,8.55
2023-02-08T09:23:58.009Z,8.07
2023-02-08T09:26:27.934Z,9.35
2023-02-08T09:28:54.991Z,9.83
2023-02-08T09:31:25.171Z,9.32
2023-02-08T09:33:54.157Z,9.93
2023-02-08T09:36:22.339Z,9.57
2023-02-08T09:38:49.921Z,10.15
2023-02-08T09:41:16.733Z,8.70
2023-02-08T09:44:17.294Z,9.20
2023-02-08T09:47:08.990Z,9.52
2023-02-08T09:49:40.639Z,10.10
2023-02-08T09:52:13.361Z,10.02
2023-02-08T09:54:48.261Z,9.73
2023-02-08T09:57:21.206Z,9.70
2023-02-08T10:00:20.404Z,9.48
2023-02-08T10:02:48.823Z,9.43
2023-02-08T10:05:21.311Z,9.05
2023-02-08T10:07:48.335Z,9.23
2023-02-08T10:10:30.912Z,10.10
2023-02-08T10:13:17.224Z,9.25
2023-02-08T10:15:57.917Z,9.20
2023-02-08T10:18:45.570Z,9.35
2023-02-08T10:21:35.110Z,9.30
2023-02-08T10:24:32.472Z,9.13
2023-02-08T10:27:13.020Z,9.25
2023-02-08T10:29:55.387Z,8.68
2023-02-08T10:32:56.580Z,9.88
2023-02-08T10:35:32.149Z,10.00
2023-02-08T10:37:59.217Z,9.27
2023-02-08T10:40:40.875Z,9.25
2023-02-08T10:43:35.407Z,9.20
2023-02-08T10:46:21.106Z,8.60
2023-02-08T10:49:05.311Z,8.17
2023-02-08T10:51:32.356Z,8.10
2023-02-08T10:53:59.123Z,8.35
2023-02-08T10:56:46.439Z,7.95
2023-02-08T10:59:29.774Z,9.00
2023-02-08T11:01:57.906Z,9.17
2023-02-08T11:04:24.883Z,8.90
2023-02-08T11:06:54.460Z,8.63
2023-02-08T11:09:25.991Z,9.15
2023-02-08T11:11:53.941Z,8.65
2023-02-08T11:14:46.191Z,8.93
2023-02-08T11:17:29.573Z,8.35
2023-02-08T11:19:58.185Z,8.95
2023-02-08T11:22:27.444Z,9.10
2023-02-08T11:25:00.577Z,8.82
2023-02-08T11:27:36.481Z,9.60
2023-02-08T11:30:15.857Z,8.30
2023-02-08T11:32:45.235Z,8.65
2023-02-08T11:35:34.137Z,8.63
2023-02-08T11:38:00.921Z,7.90
2023-02-08T11:40:42.439Z,8.60
2023-02-08T11:43:33.672Z,8.70
2023-02-08T11:46:03.105Z,9.93
2023-02-08T11:48:42.960Z,9.73
2023-02-08T11:51:13.582Z,8.98
2023-02-08T11:53:41.526Z,9.23
2023-02-08T11:56:21.932Z,10.30
2023-02-08T11:59:02.345Z,8.73
2023-02-08T12:01:35.929Z,9.38
2023-02-08T12:04:06.569Z,9.38
2023-02-08T12:06:48.295Z,10.13
2023-02-08T12:09:43.142Z,9.43
2023-02-08T12:12:31.213Z,9.55
2023-02-08T12:15:07.552Z,10.02
2023-02-08T12:17:45.188Z,9.88
2023-02-08T12:20:36.934Z,9.97
2023-02-08T12:23:34.208Z,9.25
2023-02-08T12:26:03.859Z,9.52
2023-02-08T12:29:04.635Z,9.30
2023-02-08T12:32:00.287Z,9.80
2023-02-08T12:34:55.254Z,9.70
2023-02-08T12:37:53.482Z,9.02
2023-02-08T12:40:49.850Z,8.82
2023-02-08T12:43:33.521Z,9.50
2023-02-08T12:46:15.691Z,9.18
2023-02-08T12:49:07.924Z,9.07
2023-02-08T12:52:12.639Z,8.95
2023-02-08T12:55:00.934Z,8.88
2023-02-08T12:57:31.760Z,9.27
2023-02-08T13:00:05.199Z,9.10
2023-02-08T13:02:44.704Z,9.33
2023-02-08T13:05:18.999Z,8.85
2023-02-08T13:07:50.570Z,8.55
2023-02-08T13:10:36.423Z,8.68
2023-02-08T13:13:29.325Z,9.18
2023-02-08T13:16:14.665Z,8.63
2023-02-08T13:18:55.030Z,8.60
2023-02-08T13:21:30.576Z,8.30
2023-02-08T13:23:58.516Z,8.93
2023-02-08T13:26:34.389Z,8.35
2023-02-08T13:29:03.910Z,7.90
2023-02-08T13:31:44.917Z,7.55
2023-02-08T13:34:30.657Z,8.25
2023-02-08T13:37:00.795Z,7.90
2023-02-08T13:39:41.879Z,9.10
2023-02-08T13:42:26.135Z,7.77
2023-02-08T13:44:58.197Z,8.65
2023-02-08T13:47:37.261Z,7.55
2023-02-08T13:50:09.672Z,7.53
2023-02-08T13:52:47.585Z,7.20
2023-02-08T13:55:30.853Z,7.60
2023-02-08T13:57:58.742Z,7.03
2023-02-08T14:00:34.579Z,8.50
2023-02-08T14:03:19.608Z,7.85
2023-02-08T14:05:53.291Z,8.18
2023-02-08T14:08:40.263Z,7.57
2023-02-08T14:11:31.786Z,8.18
2023-02-08T14:14:00.889Z,7.97
2023-02-08T14:16:35.985Z,7.18
2023-02-08T14:19:05.870Z,7.88
2023-02-08T14:21:41.454Z,12.70
2023-02-08T14:24:24.222Z,9.23
2023-02-08T14:26:51.765Z,8.55
2023-02-08T14:29:30.715Z,10.98
2023-02-08T14:31:57.974Z,8.93
2023-02-08T14:34:39.155Z,9.70
2023-02-08T14:37:31.430Z,7.97
2023-02-08T14:40:16.824Z,7.40
2023-02-08T14:43:00.459Z,6.28
2023-02-08T14:45:28.843Z,7.45
2023-02-08T14:47:58.929Z,6.70
2023-02-08T14:50:29.784Z,7.45
2023-02-08T14:52:59.227Z,7.65
2023-02-08T14:55:30.282Z,6.82
2023-02-08T14:58:00.846Z,8.05
2023-02-08T15:00:33.835Z,6.93
2023-02-08T15:03:04.037Z,7.30
2023-02-08T15:05:54.447Z,7.40
2023-02-08T15:08:21.475Z,6.82
2023-02-08T15:10:48.330Z,7.90
2023-02-08T15:13:24.201Z,7.20
2023-02-08T15:15:54.531Z,7.40
2023-02-08T15:18:40.424Z,7.47
2023-02-08T15:21:15.883Z,7.05
2023-02-08T15:23:42.777Z,7.65
2023-02-08T15:26:22.526Z,6.27
2023-02-08T15:28:49.420Z,6.88
2023-02-08T15:31:20.262Z,7.68
2023-02-08T15:33:47.723Z,7.05
2023-02-08T15:36:30.420Z,7.38
2023-02-08T15:39:00.562Z,7.30
2023-02-08T15:41:34.302Z,7.32
2023-02-08T15:44:29.785Z,7.18
2023-02-08T15:47:01.501Z,5.93
2023-02-08T15:49:36.586Z,6.28
2023-02-08T15:52:04.955Z,6.20
2023-02-08T15:54:31.884Z,6.35
2023-02-08T15:57:04.957Z,5.20
2023-02-08T15:59:36.360Z,5.80
2023-02-08T16:02:26.391Z,5.57
2023-02-08T16:04:53.625Z,5.20
2023-02-08T16:07:36.380Z,5.68
2023-02-08T16:10:05.875Z,5.05
2023-02-08T16:12:32.837Z,4.63
2023-02-08T16:14:59.761Z,5.00
2023-02-08T16:17:42.692Z,4.97
2023-02-08T16:20:23.036Z,4.85
2023-02-08T16:23:01.347Z,4.32
2023-02-08T16:25:49.714Z,4.00
2023-02-08T16:28:33.082Z,4.93
2023-02-08T16:31:02.724Z,5.07
2023-02-08T16:33:31.306Z,4.28
2023-02-08T16:36:01.925Z,4.70
2023-02-08T16:38:30.945Z,4.13
2023-02-08T16:41:11.993Z,4.05
2023-02-08T16:43:48.132Z,4.20
2023-02-08T16:46:21.467Z,3.97
2023-02-08T16:48:57.907Z,4.18
2023-02-08T16:51:30.779Z,3.78
2023-02-08T16:54:03.589Z,4.03
2023-02-08T16:56:30.447Z,4.20
2023-02-08T16:58:57.490Z,4.38
2023-02-08T17:01:24.562Z,4.40
2023-02-08T17:03:53.049Z,4.38
2023-02-08T17:06:30.951Z,4.80
2023-02-08T17:08:59.356Z,4.90
2023-02-08T17:11:26.721Z,4.97
2023-02-08T17:13:53.675Z,4.40
2023-02-08T17:16:22.995Z,4.10
2023-02-08T17:18:50.901Z,4.22
2023-02-08T17:21:17.980Z,5.10
2023-02-08T17:23:45.772Z,4.65
2023-02-08T17:26:28.860Z,4.97
2023-02-08T17:28:57.013Z,4.75
2023-02-08T17:31:25.859Z,4.50
2023-02-08T17:33:52.837Z,5.17
2023-02-08T17:36:19.688Z,4.85
2023-02-08T17:38:47.766Z,5.07
2023-02-08T17:41:17.675Z,5.03
2023-02-08T17:43:45.130Z,5.20
2023-02-08T17:46:21.446Z,4.87
2023-02-08T17:48:48.525Z,5.55
2023-02-08T17:51:21.258Z,7.88
2023-02-08T17:53:48.354Z,7.35
2023-02-08T17:56:21.425Z,7.32
2023-02-08T17:58:51.483Z,7.30
2023-02-08T18:01:23.564Z,6.60
2023-02-08T18:03:51.749Z,7.20
2023-02-08T18:06:19.502Z,6.85
2023-02-08T18:08:46.619Z,6.70
2023-02-08T18:11:18.854Z,6.83
2023-02-08T18:13:47.550Z,7.72
2023-02-08T18:16:19.109Z,6.32
2023-02-08T18:18:49.139Z,6.55
2023-02-08T18:21:19.340Z,5.45
2023-02-08T18:23:47.634Z,6.43
2023-02-08T18:26:17.038Z,6.35
2023-02-08T18:28:44.770Z,5.68
2023-02-08T18:31:14.981Z,5.25
2023-02-08T18:33:43.799Z,5.70
2023-02-08T18:36:12.485Z,5.20
2023-02-08T18:38:41.613Z,5.13
2023-02-08T18:41:10.472Z,5.50
2023-02-08T18:43:39.028Z,5.05
2023-02-08T18:46:10.112Z,4.82
2023-02-08T18:48:41.825Z,4.90
2023-02-08T18:51:14.691Z,4.95
2023-02-08T18:53:42.832Z,5.20
2023-02-08T18:56:11.550Z,5.18
2023-02-08T18:58:39.066Z,5.10
2023-02-08T19:01:15.797Z,4.83
2023-02-08T19:03:45.003Z,5.10
2023-02-08T19:06:22.553Z,4.80
2023-02-08T19:08:54.283Z,5.40
2023-02-08T19:11:23.840Z,4.72
2023-02-08T19:13:51.406Z,5.30
2023-02-08T19:16:21.783Z,4.95
2023-02-08T19:18:49.501Z,6.20
2023-02-08T19:21:17.617Z,5.65
2023-02-08T19:23:54.324Z,4.93
2023-02-08T19:26:26.275Z,5.30
2023-02-08T19:28:55.009Z,5.82
2023-02-08T19:31:23.271Z,5.47
2023-02-08T19:33:58.680Z,5.35
2023-02-08T19:36:34.756Z,5.50
2023-02-08T19:39:03.040Z,5.57
2023-02-08T19:41:35.793Z,5.63
2023-02-08T19:44:05.533Z,5.90
2023-02-08T19:46:34.511Z,5.85
2023-02-08T19:49:01.964Z,5.88
2023-02-08T19:51:32.087Z,6.13
2023-02-08T19:54:00.978Z,5.40
2023-02-08T19:56:33.897Z,5.63
2023-02-08T19:59:05.463Z,6.07
2023-02-08T20:01:34.327Z,5.60
2023-02-08T20:04:02.572Z,5.23
2023-02-08T20:06:33.056Z,5.50
2023-02-08T20:09:03.996Z,5.75
2023-02-08T20:11:35.959Z,6.03
2023-02-08T20:14:05.693Z,5.53
2023-02-08T20:16:33.840Z,7.00
2023-02-08T20:19:01.065Z,7.28
2023-02-08T20:21:28.243Z,6.22
2023-02-08T20:23:55.574Z,7.28
2023-02-08T20:26:25.587Z,6.25
2023-02-08T20:28:57.827Z,7.17
2023-02-08T20:31:30.188Z,7.45
2023-02-08T20:33:59.762Z,11.43
2023-02-08T20:36:32.606Z,9.05
2023-02-08T20:39:00.153Z,7.28
2023-02-08T20:41:28.216Z,7.10
2023-02-08T20:43:55.006Z,9.32
2023-02-08T20:46:24.406Z,8.00
2023-02-08T20:48:52.884Z,8.23
2023-02-08T20:51:21.560Z,7.30
2023-02-08T20:53:49.819Z,7.80
2023-02-08T20:56:19.158Z,7.45
2023-02-08T20:58:46.629Z,8.05
2023-02-08T21:01:26.048Z,8.32
2023-02-08T21:03:54.669Z,7.47
2023-02-08T21:06:26.570Z,7.87
2023-02-08T21:08:55.382Z,7.15
2023-02-08T21:11:24.955Z,7.78
2023-02-08T21:13:51.807Z,7.57
2023-02-08T21:16:18.825Z,6.82
2023-02-08T21:18:47.039Z,7.03
2023-02-08T21:21:15.397Z,7.43
2023-02-08T21:23:44.097Z,7.28
2023-02-08T21:26:15.410Z,7.18
2023-02-08T21:28:43.725Z,7.13
2023-02-08T21:31:17.052Z,7.33
2023-02-08T21:33:44.738Z,6.88
2023-02-08T21:36:14.438Z,7.13
2023-02-08T21:38:41.468Z,7.10
2023-02-08T21:41:24.385Z,6.95
2023-02-08T21:43:53.850Z,7.00
2023-02-08T21:46:21.186Z,6.63
2023-02-08T21:49:07.169Z,6.72
2023-02-08T21:51:52.856Z,6.65
2023-02-08T21:54:41.414Z,6.15
2023-02-08T21:57:12.794Z,5.83
2023-02-08T21:59:40.137Z,6.18
2023-02-08T22:02:10.599Z,6.25
2023-02-08T22:04:37.526Z,6.30
2023-02-08T22:07:04.726Z,6.25
2023-02-08T22:09:31.888Z,6.90
2023-02-08T22:11:58.921Z,6.22
2023-02-08T22:14:25.990Z,6.80
2023-02-08T22:16:52.730Z,6.70
2023-02-08T22:19:19.457Z,6.32
2023-02-08T22:21:46.464Z,6.83
2023-02-08T22:24:13.186Z,6.57
2023-02-08T22:26:40.081Z,6.57
2023-02-08T22:29:06.890Z,6.55
2023-02-08T22:31:33.743Z,6.68
2023-02-08T22:34:00.704Z,6.50
2023-02-08T22:36:27.571Z,6.95
2023-02-08T22:38:54.505Z,6.90
2023-02-08T22:41:21.332Z,6.97
2023-02-08T22:43:48.881Z,6.53
2023-02-08T22:46:15.774Z,7.03
2023-02-08T22:48:42.744Z,6.50
2023-02-08T22:51:15.049Z,6.65
2023-02-08T22:53:42.085Z,6.43
2023-02-08T22:56:09.306Z,6.40
2023-02-08T22:58:36.311Z,7.43
2023-02-08T23:01:03.603Z,6.80
2023-02-08T23:03:30.509Z,6.32
2023-02-08T23:05:57.340Z,7.10
2023-02-08T23:08:24.239Z,7.00
2023-02-08T23:11:01.674Z,7.70
2023-02-08T23:13:29.189Z,6.60
2023-02-08T23:15:56.219Z,7.07
2023-02-08T23:18:23.765Z,6.85
2023-02-08T23:20:51.051Z,6.65
2023-02-08T23:23:18.734Z,6.77
2023-02-08T23:25:45.670Z,7.50
2023-02-08T23:28:13.595Z,7.32
2023-02-08T23:30:42.512Z,6.63
2023-02-08T23:33:09.628Z,7.45
2023-02-08T23:35:40.291Z,6.87
2023-02-08T23:38:07.419Z,6.80
2023-02-08T23:40:34.300Z,6.78
2023-02-08T23:43:01.010Z,7.35
2023-02-08T23:45:28.585Z,6.70
2023-02-08T23:47:55.636Z,6.80
2023-02-08T23:50:22.404Z,6.65
2023-02-08T23:52:49.175Z,6.80
2023-02-08T23:55:15.989Z,6.22
2023-02-08T23:57:43.543Z,7.28
